sensor_id;sensor_type;location;lat;lon;timestamp;P1;durP1;ratioP1;P2;durP2;ratioP2
25667;SDS011;18003;-33.830;151.202;2024-02-26T00:01:26;3.47;;;2.17;;
25667;SDS011;18003;-33.830;151.202;2024-02-26T00:03:55;2.98;;;2.37;;
25667;SDS011;18003;-33.830;151.202;2024-02-26T00:06:25;2.83;;;2.50;;
25667;SDS011;18003;-33.830;151.202;2024-02-26T00:08:54;3.52;;;2.65;;
25667;SDS011;18003;-33.830;151.202;2024-02-26T00:11:23;5.87;;;2.65;;
25667;SDS011;18003;-33.830;151.202;2024-02-26T00:13:52;3.12;;;2.37;;
25667;SDS011;18003;-33.830;151.202;2024-02-26T00:16:21;3.55;;;2.95;;
25667;SDS011;18003;-33.830;151.202;2024-02-26T00:18:50;2.98;;;2.58;;
25667;SDS011;18003;-33.830;151.202;2024-02-26T00:21:19;3.05;;;2.85;;
25667;SDS011;18003;-33.830;151.202;2024-02-26T00:23:49;3.08;;;2.70;;
25667;SDS011;18003;-33.830;151.202;2024-02-26T00:26:21;2.50;;;2.30;;
25667;SDS011;18003;-33.830;151.202;2024-02-26T00:28:50;3.27;;;2.67;;
25667;SDS011;18003;-33.830;151.202;2024-02-26T00:31:19;2.75;;;2.20;;
25667;SDS011;18003;-33.830;151.202;2024-02-26T00:33:48;2.12;;;1.92;;
25667;SDS011;18003;-33.830;151.202;2024-02-26T00:36:17;2.30;;;2.10;;
25667;SDS011;18003;-33.830;151.202;2024-02-26T00:38:47;2.62;;;2.27;;
25667;SDS011;18003;-33.830;151.202;2024-02-26T00:41:17;2.00;;;1.90;;
25667;SDS011;18003;-33.830;151.202;2024-02-26T00:43:46;2.72;;;2.37;;
25667;SDS011;18003;-33.830;151.202;2024-02-26T00:46:15;2.65;;;2.45;;
25667;SDS011;18003;-33.830;151.202;2024-02-26T00:48:44;2.40;;;2.20;;
25667;SDS011;18003;-33.830;151.202;2024-02-26T00:51:13;2.40;;;2.20;;
25667;SDS011;18003;-33.830;151.202;2024-02-26T00:53:42;2.50;;;2.30;;
25667;SDS011;18003;-33.830;151.202;2024-02-26T00:56:11;2.05;;;1.90;;
25667;SDS011;18003;-33.830;151.202;2024-02-26T00:58:40;2.85;;;2.10;;
25667;SDS011;18003;-33.830;151.202;2024-02-26T01:01:09;3.00;;;2.05;;
25667;SDS011;18003;-33.830;151.202;2024-02-26T01:03:38;1.87;;;1.77;;
25667;SDS011;18003;-33.830;151.202;2024-02-26T01:06:07;2.17;;;1.98;;
25667;SDS011;18003;-33.830;151.202;2024-02-26T01:08:37;2.70;;;2.02;;
25667;SDS011;18003;-33.830;151.202;2024-02-26T01:11:06;1.87;;;1.77;;
25667;SDS011;18003;-33.830;151.202;2024-02-26T01:13:35;3.10;;;2.10;;
25667;SDS011;18003;-33.830;151.202;2024-02-26T01:16:04;2.10;;;1.90;;
25667;SDS011;18003;-33.830;151.202;2024-02-26T01:18:33;2.30;;;2.10;;
25667;SDS011;18003;-33.830;151.202;2024-02-26T01:21:02;1.92;;;1.82;;
25667;SDS011;18003;-33.830;151.202;2024-02-26T01:23:33;2.13;;;1.80;;
25667;SDS011;18003;-33.830;151.202;2024-02-26T01:26:01;2.08;;;1.80;;
25667;SDS011;18003;-33.830;151.202;2024-02-26T01:28:31;2.50;;;2.30;;
25667;SDS011;18003;-33.830;151.202;2024-02-26T01:31:00;2.10;;;1.50;;
25667;SDS011;18003;-33.830;151.202;2024-02-26T01:33:30;2.10;;;1.80;;
25667;SDS011;18003;-33.830;151.202;2024-02-26T01:35:59;2.33;;;1.72;;
25667;SDS011;18003;-33.830;151.202;2024-02-26T01:38:28;3.70;;;2.10;;
25667;SDS011;18003;-33.830;151.202;2024-02-26T01:40:58;2.60;;;2.30;;
25667;SDS011;18003;-33.830;151.202;2024-02-26T01:43:27;3.77;;;2.17;;
25667;SDS011;18003;-33.830;151.202;2024-02-26T01:45:56;2.60;;;2.40;;
25667;SDS011;18003;-33.830;151.202;2024-02-26T01:48:25;2.50;;;2.27;;
25667;SDS011;18003;-33.830;151.202;2024-02-26T01:50:54;2.30;;;2.10;;
25667;SDS011;18003;-33.830;151.202;2024-02-26T01:53:23;3.37;;;2.27;;
25667;SDS011;18003;-33.830;151.202;2024-02-26T01:55:52;2.98;;;2.05;;
25667;SDS011;18003;-33.830;151.202;2024-02-26T01:58:21;3.17;;;2.20;;
25667;SDS011;18003;-33.830;151.202;2024-02-26T02:00:50;2.22;;;1.92;;
25667;SDS011;18003;-33.830;151.202;2024-02-26T02:03:19;3.08;;;2.10;;
25667;SDS011;18003;-33.830;151.202;2024-02-26T02:05:48;3.40;;;2.08;;
25667;SDS011;18003;-33.830;151.202;2024-02-26T02:08:17;2.10;;;1.87;;
25667;SDS011;18003;-33.830;151.202;2024-02-26T02:10:47;2.30;;;2.10;;
25667;SDS011;18003;-33.830;151.202;2024-02-26T02:13:17;2.10;;;1.70;;
25667;SDS011;18003;-33.830;151.202;2024-02-26T02:15:46;2.22;;;1.90;;
25667;SDS011;18003;-33.830;151.202;2024-02-26T02:18:15;2.35;;;2.15;;
25667;SDS011;18003;-33.830;151.202;2024-02-26T02:20:44;2.45;;;2.10;;
25667;SDS011;18003;-33.830;151.202;2024-02-26T02:23:13;2.72;;;2.10;;
25667;SDS011;18003;-33.830;151.202;2024-02-26T02:25:42;2.98;;;2.30;;
25667;SDS011;18003;-33.830;151.202;2024-02-26T02:28:11;2.52;;;2.10;;
25667;SDS011;18003;-33.830;151.202;2024-02-26T02:30:40;2.33;;;1.92;;
25667;SDS011;18003;-33.830;151.202;2024-02-26T02:33:09;2.62;;;2.22;;
25667;SDS011;18003;-33.830;151.202;2024-02-26T02:35:39;2.62;;;2.08;;
25667;SDS011;18003;-33.830;151.202;2024-02-26T02:38:08;2.30;;;2.10;;
25667;SDS011;18003;-33.830;151.202;2024-02-26T02:40:37;2.80;;;2.42;;
25667;SDS011;18003;-33.830;151.202;2024-02-26T02:43:07;2.50;;;2.30;;
25667;SDS011;18003;-33.830;151.202;2024-02-26T02:45:36;2.47;;;2.25;;
25667;SDS011;18003;-33.830;151.202;2024-02-26T02:48:05;2.08;;;1.92;;
25667;SDS011;18003;-33.830;151.202;2024-02-26T02:50:34;2.10;;;1.90;;
25667;SDS011;18003;-33.830;151.202;2024-02-26T02:53:03;3.90;;;2.22;;
25667;SDS011;18003;-33.830;151.202;2024-02-26T02:55:32;2.33;;;2.08;;
25667;SDS011;18003;-33.830;151.202;2024-02-26T02:58:01;2.20;;;2.00;;
25667;SDS011;18003;-33.830;151.202;2024-02-26T03:00:30;2.20;;;2.00;;
25667;SDS011;18003;-33.830;151.202;2024-02-26T03:02:59;2.33;;;2.10;;
25667;SDS011;18003;-33.830;151.202;2024-02-26T03:05:28;2.30;;;2.10;;
25667;SDS011;18003;-33.830;151.202;2024-02-26T03:07:57;2.40;;;2.20;;
25667;SDS011;18003;-33.830;151.202;2024-02-26T03:10:26;2.30;;;2.12;;
25667;SDS011;18003;-33.830;151.202;2024-02-26T03:12:55;2.50;;;2.30;;
25667;SDS011;18003;-33.830;151.202;2024-02-26T03:15:25;2.87;;;2.30;;
25667;SDS011;18003;-33.830;151.202;2024-02-26T03:17:54;2.20;;;2.10;;
25667;SDS011;18003;-33.830;151.202;2024-02-26T03:20:23;3.02;;;2.55;;
25667;SDS011;18003;-33.830;151.202;2024-02-26T03:22:52;2.60;;;2.40;;
25667;SDS011;18003;-33.830;151.202;2024-02-26T03:25:21;2.70;;;2.30;;
25667;SDS011;18003;-33.830;151.202;2024-02-26T03:27:50;2.70;;;2.33;;
25667;SDS011;18003;-33.830;151.202;2024-02-26T03:30:19;2.70;;;2.50;;
25667;SDS011;18003;-33.830;151.202;2024-02-26T03:32:48;2.70;;;2.50;;
25667;SDS011;18003;-33.830;151.202;2024-02-26T03:35:17;3.17;;;2.50;;
25667;SDS011;18003;-33.830;151.202;2024-02-26T03:37:46;2.50;;;2.30;;
25667;SDS011;18003;-33.830;151.202;2024-02-26T03:40:15;2.60;;;2.40;;
25667;SDS011;18003;-33.830;151.202;2024-02-26T03:42:45;2.58;;;2.37;;
25667;SDS011;18003;-33.830;151.202;2024-02-26T03:45:14;2.42;;;2.22;;
25667;SDS011;18003;-33.830;151.202;2024-02-26T03:47:43;2.70;;;2.50;;
25667;SDS011;18003;-33.830;151.202;2024-02-26T03:50:12;2.60;;;2.40;;
25667;SDS011;18003;-33.830;151.202;2024-02-26T03:52:41;2.83;;;2.62;;
25667;SDS011;18003;-33.830;151.202;2024-02-26T03:55:10;2.80;;;2.60;;
25667;SDS011;18003;-33.830;151.202;2024-02-26T03:57:39;2.90;;;2.70;;
25667;SDS011;18003;-33.830;151.202;2024-02-26T04:00:08;2.90;;;2.52;;
25667;SDS011;18003;-33.830;151.202;2024-02-26T04:02:37;2.72;;;2.52;;
25667;SDS011;18003;-33.830;151.202;2024-02-26T04:05:09;3.00;;;2.70;;
25667;SDS011;18003;-33.830;151.202;2024-02-26T04:07:37;2.60;;;2.40;;
25667;SDS011;18003;-33.830;151.202;2024-02-26T04:10:14;3.35;;;2.72;;
25667;SDS011;18003;-33.830;151.202;2024-02-26T04:12:42;2.90;;;2.70;;
25667;SDS011;18003;-33.830;151.202;2024-02-26T04:15:11;2.92;;;2.65;;
25667;SDS011;18003;-33.830;151.202;2024-02-26T04:17:40;2.67;;;2.47;;
25667;SDS011;18003;-33.830;151.202;2024-02-26T04:20:13;2.62;;;2.42;;
25667;SDS011;18003;-33.830;151.202;2024-02-26T04:22:39;3.17;;;2.52;;
25667;SDS011;18003;-33.830;151.202;2024-02-26T04:25:08;2.55;;;2.40;;
25667;SDS011;18003;-33.830;151.202;2024-02-26T04:27:37;4.05;;;3.02;;
25667;SDS011;18003;-33.830;151.202;2024-02-26T04:30:07;3.05;;;2.85;;
25667;SDS011;18003;-33.830;151.202;2024-02-26T04:32:36;3.20;;;3.00;;
25667;SDS011;18003;-33.830;151.202;2024-02-26T04:35:05;3.12;;;2.83;;
25667;SDS011;18003;-33.830;151.202;2024-02-26T04:37:34;2.95;;;2.60;;
25667;SDS011;18003;-33.830;151.202;2024-02-26T04:40:03;2.77;;;2.58;;
25667;SDS011;18003;-33.830;151.202;2024-02-26T04:42:32;2.60;;;2.40;;
25667;SDS011;18003;-33.830;151.202;2024-02-26T04:45:01;2.65;;;2.45;;
25667;SDS011;18003;-33.830;151.202;2024-02-26T04:47:31;2.90;;;2.70;;
25667;SDS011;18003;-33.830;151.202;2024-02-26T04:50:00;2.90;;;2.70;;
25667;SDS011;18003;-33.830;151.202;2024-02-26T04:52:29;3.65;;;3.00;;
25667;SDS011;18003;-33.830;151.202;2024-02-26T04:54:58;2.90;;;2.67;;
25667;SDS011;18003;-33.830;151.202;2024-02-26T04:57:27;3.33;;;3.00;;
25667;SDS011;18003;-33.830;151.202;2024-02-26T04:59:56;3.72;;;2.90;;
25667;SDS011;18003;-33.830;151.202;2024-02-26T05:02:25;2.95;;;2.67;;
25667;SDS011;18003;-33.830;151.202;2024-02-26T05:04:54;3.10;;;2.87;;
25667;SDS011;18003;-33.830;151.202;2024-02-26T05:07:23;2.95;;;2.72;;
25667;SDS011;18003;-33.830;151.202;2024-02-26T05:09:52;2.77;;;2.58;;
25667;SDS011;18003;-33.830;151.202;2024-02-26T05:12:21;4.10;;;2.90;;
25667;SDS011;18003;-33.830;151.202;2024-02-26T05:14:50;3.83;;;3.08;;
25667;SDS011;18003;-33.830;151.202;2024-02-26T05:17:19;3.30;;;3.00;;
25667;SDS011;18003;-33.830;151.202;2024-02-26T05:19:48;3.25;;;2.95;;
25667;SDS011;18003;-33.830;151.202;2024-02-26T05:22:17;3.20;;;2.90;;
25667;SDS011;18003;-33.830;151.202;2024-02-26T05:24:46;2.98;;;2.77;;
25667;SDS011;18003;-33.830;151.202;2024-02-26T05:27:15;3.05;;;2.85;;
25667;SDS011;18003;-33.830;151.202;2024-02-26T05:29:44;3.12;;;2.90;;
25667;SDS011;18003;-33.830;151.202;2024-02-26T05:32:13;2.83;;;2.62;;
25667;SDS011;18003;-33.830;151.202;2024-02-26T05:34:42;3.17;;;2.98;;
25667;SDS011;18003;-33.830;151.202;2024-02-26T05:37:12;3.25;;;2.95;;
25667;SDS011;18003;-33.830;151.202;2024-02-26T05:39:41;3.12;;;2.83;;
25667;SDS011;18003;-33.830;151.202;2024-02-26T05:42:09;3.27;;;2.70;;
25667;SDS011;18003;-33.830;151.202;2024-02-26T05:44:38;3.10;;;2.90;;
25667;SDS011;18003;-33.830;151.202;2024-02-26T05:47:07;3.47;;;2.80;;
25667;SDS011;18003;-33.830;151.202;2024-02-26T05:49:37;3.27;;;3.08;;
25667;SDS011;18003;-33.830;151.202;2024-02-26T05:52:06;3.02;;;2.80;;
25667;SDS011;18003;-33.830;151.202;2024-02-26T05:54:35;3.00;;;2.80;;
25667;SDS011;18003;-33.830;151.202;2024-02-26T05:57:04;3.05;;;2.75;;
25667;SDS011;18003;-33.830;151.202;2024-02-26T05:59:34;3.05;;;2.83;;
25667;SDS011;18003;-33.830;151.202;2024-02-26T06:02:03;3.17;;;2.98;;
25667;SDS011;18003;-33.830;151.202;2024-02-26T06:04:31;3.35;;;2.90;;
25667;SDS011;18003;-33.830;151.202;2024-02-26T06:07:00;3.00;;;2.80;;
25667;SDS011;18003;-33.830;151.202;2024-02-26T06:09:29;2.92;;;2.72;;
25667;SDS011;18003;-33.830;151.202;2024-02-26T06:11:58;2.83;;;2.62;;
25667;SDS011;18003;-33.830;151.202;2024-02-26T06:14:27;2.70;;;2.50;;
25667;SDS011;18003;-33.830;151.202;2024-02-26T06:16:56;3.30;;;2.98;;
25667;SDS011;18003;-33.830;151.202;2024-02-26T06:19:25;2.87;;;2.60;;
25667;SDS011;18003;-33.830;151.202;2024-02-26T06:21:54;4.33;;;3.25;;
25667;SDS011;18003;-33.830;151.202;2024-02-26T06:24:23;2.95;;;2.75;;
25667;SDS011;18003;-33.830;151.202;2024-02-26T06:26:52;3.20;;;2.90;;
25667;SDS011;18003;-33.830;151.202;2024-02-26T06:29:21;2.98;;;2.77;;
25667;SDS011;18003;-33.830;151.202;2024-02-26T06:31:50;3.22;;;3.02;;
25667;SDS011;18003;-33.830;151.202;2024-02-26T06:34:19;3.37;;;3.05;;
25667;SDS011;18003;-33.830;151.202;2024-02-26T06:36:48;4.42;;;2.58;;
25667;SDS011;18003;-33.830;151.202;2024-02-26T06:39:17;3.37;;;2.90;;
25667;SDS011;18003;-33.830;151.202;2024-02-26T06:41:46;3.27;;;2.98;;
25667;SDS011;18003;-33.830;151.202;2024-02-26T06:44:15;3.47;;;3.05;;
25667;SDS011;18003;-33.830;151.202;2024-02-26T06:46:44;3.58;;;3.08;;
25667;SDS011;18003;-33.830;151.202;2024-02-26T06:49:13;3.50;;;3.20;;
25667;SDS011;18003;-33.830;151.202;2024-02-26T06:51:43;3.12;;;2.83;;
25667;SDS011;18003;-33.830;151.202;2024-02-26T06:54:12;5.12;;;2.90;;
25667;SDS011;18003;-33.830;151.202;2024-02-26T06:56:41;3.55;;;3.00;;
25667;SDS011;18003;-33.830;151.202;2024-02-26T06:59:10;3.40;;;3.10;;
25667;SDS011;18003;-33.830;151.202;2024-02-26T07:01:43;3.15;;;2.83;;
25667;SDS011;18003;-33.830;151.202;2024-02-26T07:04:09;3.40;;;3.10;;
25667;SDS011;18003;-33.830;151.202;2024-02-26T07:06:38;3.62;;;3.10;;
25667;SDS011;18003;-33.830;151.202;2024-02-26T07:09:07;3.50;;;2.98;;
25667;SDS011;18003;-33.830;151.202;2024-02-26T07:11:36;4.60;;;3.20;;
25667;SDS011;18003;-33.830;151.202;2024-02-26T07:14:05;3.80;;;3.17;;
25667;SDS011;18003;-33.830;151.202;2024-02-26T07:16:34;4.05;;;3.12;;
25667;SDS011;18003;-33.830;151.202;2024-02-26T07:19:03;3.90;;;3.35;;
25667;SDS011;18003;-33.830;151.202;2024-02-26T07:21:32;3.30;;;3.00;;
25667;SDS011;18003;-33.830;151.202;2024-02-26T07:24:01;4.30;;;3.30;;
25667;SDS011;18003;-33.830;151.202;2024-02-26T07:26:30;4.10;;;3.45;;
25667;SDS011;18003;-33.830;151.202;2024-02-26T07:28:59;4.50;;;3.15;;
25667;SDS011;18003;-33.830;151.202;2024-02-26T07:31:28;3.77;;;3.27;;
25667;SDS011;18003;-33.830;151.202;2024-02-26T07:33:57;4.28;;;3.40;;
25667;SDS011;18003;-33.830;151.202;2024-02-26T07:36:25;4.45;;;3.27;;
25667;SDS011;18003;-33.830;151.202;2024-02-26T07:38:54;5.17;;;3.62;;
25667;SDS011;18003;-33.830;151.202;2024-02-26T07:41:23;4.85;;;3.17;;
25667;SDS011;18003;-33.830;151.202;2024-02-26T07:43:52;3.50;;;3.20;;
25667;SDS011;18003;-33.830;151.202;2024-02-26T07:46:21;4.78;;;3.42;;
25667;SDS011;18003;-33.830;151.202;2024-02-26T07:48:50;3.45;;;3.00;;
25667;SDS011;18003;-33.830;151.202;2024-02-26T07:51:19;4.42;;;3.30;;
25667;SDS011;18003;-33.830;151.202;2024-02-26T07:53:50;4.17;;;3.17;;
25667;SDS011;18003;-33.830;151.202;2024-02-26T07:56:19;4.83;;;3.50;;
25667;SDS011;18003;-33.830;151.202;2024-02-26T07:58:49;5.17;;;3.45;;
25667;SDS011;18003;-33.830;151.202;2024-02-26T08:01:18;4.45;;;3.30;;
25667;SDS011;18003;-33.830;151.202;2024-02-26T08:03:47;4.55;;;3.30;;
25667;SDS011;18003;-33.830;151.202;2024-02-26T08:06:16;4.10;;;3.00;;
25667;SDS011;18003;-33.830;151.202;2024-02-26T08:08:45;3.42;;;2.90;;
25667;SDS011;18003;-33.830;151.202;2024-02-26T08:11:17;4.78;;;2.90;;
25667;SDS011;18003;-33.830;151.202;2024-02-26T08:13:46;3.50;;;2.85;;
25667;SDS011;18003;-33.830;151.202;2024-02-26T08:16:15;4.78;;;3.00;;
25667;SDS011;18003;-33.830;151.202;2024-02-26T08:18:44;3.87;;;3.08;;
25667;SDS011;18003;-33.830;151.202;2024-02-26T08:21:13;3.90;;;3.05;;
25667;SDS011;18003;-33.830;151.202;2024-02-26T08:23:43;3.55;;;3.25;;
25667;SDS011;18003;-33.830;151.202;2024-02-26T08:26:12;4.15;;;2.80;;
25667;SDS011;18003;-33.830;151.202;2024-02-26T08:28:40;5.35;;;3.62;;
25667;SDS011;18003;-33.830;151.202;2024-02-26T08:31:09;3.67;;;3.05;;
25667;SDS011;18003;-33.830;151.202;2024-02-26T08:33:38;3.30;;;3.00;;
25667;SDS011;18003;-33.830;151.202;2024-02-26T08:36:08;4.20;;;3.52;;
25667;SDS011;18003;-33.830;151.202;2024-02-26T08:38:37;5.15;;;4.05;;
25667;SDS011;18003;-33.830;151.202;2024-02-26T08:41:06;5.08;;;3.60;;
25667;SDS011;18003;-33.830;151.202;2024-02-26T08:43:35;4.80;;;3.40;;
25667;SDS011;18003;-33.830;151.202;2024-02-26T08:46:04;2.98;;;2.70;;
25667;SDS011;18003;-33.830;151.202;2024-02-26T08:48:33;4.17;;;3.37;;
25667;SDS011;18003;-33.830;151.202;2024-02-26T08:51:04;4.10;;;3.10;;
25667;SDS011;18003;-33.830;151.202;2024-02-26T08:53:32;4.42;;;2.70;;
25667;SDS011;18003;-33.830;151.202;2024-02-26T08:56:02;3.77;;;2.72;;
25667;SDS011;18003;-33.830;151.202;2024-02-26T08:58:31;4.03;;;2.50;;
25667;SDS011;18003;-33.830;151.202;2024-02-26T09:01:00;4.95;;;2.52;;
25667;SDS011;18003;-33.830;151.202;2024-02-26T09:03:29;3.02;;;2.40;;
25667;SDS011;18003;-33.830;151.202;2024-02-26T09:05:58;5.20;;;2.70;;
25667;SDS011;18003;-33.830;151.202;2024-02-26T09:08:26;3.17;;;2.62;;
25667;SDS011;18003;-33.830;151.202;2024-02-26T09:10:55;3.35;;;2.40;;
25667;SDS011;18003;-33.830;151.202;2024-02-26T09:13:25;3.42;;;2.42;;
25667;SDS011;18003;-33.830;151.202;2024-02-26T09:15:54;3.35;;;2.72;;
25667;SDS011;18003;-33.830;151.202;2024-02-26T09:18:23;3.55;;;2.50;;
25667;SDS011;18003;-33.830;151.202;2024-02-26T09:20:52;3.52;;;2.80;;
25667;SDS011;18003;-33.830;151.202;2024-02-26T09:23:21;3.98;;;3.02;;
25667;SDS011;18003;-33.830;151.202;2024-02-26T09:25:50;2.95;;;2.20;;
25667;SDS011;18003;-33.830;151.202;2024-02-26T09:28:19;3.40;;;2.55;;
25667;SDS011;18003;-33.830;151.202;2024-02-26T09:30:48;3.02;;;2.65;;
25667;SDS011;18003;-33.830;151.202;2024-02-26T09:33:18;3.95;;;2.58;;
25667;SDS011;18003;-33.830;151.202;2024-02-26T09:35:47;2.52;;;2.20;;
25667;SDS011;18003;-33.830;151.202;2024-02-26T09:38:16;3.27;;;2.40;;
25667;SDS011;18003;-33.830;151.202;2024-02-26T09:40:45;2.92;;;2.45;;
25667;SDS011;18003;-33.830;151.202;2024-02-26T09:43:14;2.85;;;2.40;;
25667;SDS011;18003;-33.830;151.202;2024-02-26T09:45:44;2.85;;;2.47;;
25667;SDS011;18003;-33.830;151.202;2024-02-26T09:48:13;2.47;;;1.98;;
25667;SDS011;18003;-33.830;151.202;2024-02-26T09:50:44;2.35;;;2.12;;
25667;SDS011;18003;-33.830;151.202;2024-02-26T09:53:13;2.20;;;2.00;;
25667;SDS011;18003;-33.830;151.202;2024-02-26T09:55:42;2.37;;;2.17;;
25667;SDS011;18003;-33.830;151.202;2024-02-26T09:58:12;2.90;;;2.17;;
25667;SDS011;18003;-33.830;151.202;2024-02-26T10:00:41;2.65;;;2.10;;
25667;SDS011;18003;-33.830;151.202;2024-02-26T10:03:12;2.87;;;2.10;;
25667;SDS011;18003;-33.830;151.202;2024-02-26T10:08:09;2.70;;;2.25;;
25667;SDS011;18003;-33.830;151.202;2024-02-26T10:10:39;3.00;;;2.42;;
25667;SDS011;18003;-33.830;151.202;2024-02-26T10:13:08;3.30;;;2.30;;
25667;SDS011;18003;-33.830;151.202;2024-02-26T10:15:38;2.27;;;2.07;;
25667;SDS011;18003;-33.830;151.202;2024-02-26T10:18:07;2.98;;;2.15;;
25667;SDS011;18003;-33.830;151.202;2024-02-26T10:20:36;2.95;;;2.40;;
25667;SDS011;18003;-33.830;151.202;2024-02-26T10:23:05;3.40;;;2.52;;
25667;SDS011;18003;-33.830;151.202;2024-02-26T10:25:34;2.30;;;2.02;;
25667;SDS011;18003;-33.830;151.202;2024-02-26T10:28:04;2.08;;;1.87;;
25667;SDS011;18003;-33.830;151.202;2024-02-26T10:30:36;2.08;;;1.87;;
25667;SDS011;18003;-33.830;151.202;2024-02-26T10:33:03;2.33;;;2.12;;
25667;SDS011;18003;-33.830;151.202;2024-02-26T10:35:31;2.25;;;2.05;;
25667;SDS011;18003;-33.830;151.202;2024-02-26T10:38:02;2.10;;;1.90;;
25667;SDS011;18003;-33.830;151.202;2024-02-26T10:40:31;1.95;;;1.75;;
25667;SDS011;18003;-33.830;151.202;2024-02-26T10:43:00;2.15;;;1.80;;
25667;SDS011;18003;-33.830;151.202;2024-02-26T10:45:29;2.33;;;2.12;;
25667;SDS011;18003;-33.830;151.202;2024-02-26T10:47:58;2.20;;;2.00;;
25667;SDS011;18003;-33.830;151.202;2024-02-26T10:50:27;2.00;;;1.80;;
25667;SDS011;18003;-33.830;151.202;2024-02-26T10:52:56;2.47;;;1.82;;
25667;SDS011;18003;-33.830;151.202;2024-02-26T10:55:26;2.83;;;2.05;;
25667;SDS011;18003;-33.830;151.202;2024-02-26T10:57:56;1.70;;;1.60;;
25667;SDS011;18003;-33.830;151.202;2024-02-26T11:00:26;1.75;;;1.50;;
25667;SDS011;18003;-33.830;151.202;2024-02-26T11:02:56;2.05;;;1.60;;
25667;SDS011;18003;-33.830;151.202;2024-02-26T11:05:26;1.80;;;1.60;;
25667;SDS011;18003;-33.830;151.202;2024-02-26T11:07:56;2.42;;;2.10;;
25667;SDS011;18003;-33.830;151.202;2024-02-26T11:10:25;2.05;;;1.82;;
25667;SDS011;18003;-33.830;151.202;2024-02-26T11:12:55;1.70;;;1.60;;
25667;SDS011;18003;-33.830;151.202;2024-02-26T11:15:24;1.80;;;1.70;;
25667;SDS011;18003;-33.830;151.202;2024-02-26T11:17:53;2.37;;;2.08;;
25667;SDS011;18003;-33.830;151.202;2024-02-26T11:20:23;3.20;;;1.87;;
25667;SDS011;18003;-33.830;151.202;2024-02-26T11:22:52;1.67;;;1.57;;
25667;SDS011;18003;-33.830;151.202;2024-02-26T11:25:21;2.15;;;1.70;;
25667;SDS011;18003;-33.830;151.202;2024-02-26T11:27:54;2.27;;;1.80;;
25667;SDS011;18003;-33.830;151.202;2024-02-26T11:30:24;1.90;;;1.65;;
25667;SDS011;18003;-33.830;151.202;2024-02-26T11:32:53;2.10;;;1.77;;
25667;SDS011;18003;-33.830;151.202;2024-02-26T11:35:23;2.30;;;1.90;;
25667;SDS011;18003;-33.830;151.202;2024-02-26T11:37:56;2.17;;;1.98;;
25667;SDS011;18003;-33.830;151.202;2024-02-26T11:40:25;2.12;;;1.92;;
25667;SDS011;18003;-33.830;151.202;2024-02-26T11:42:54;2.35;;;2.00;;
25667;SDS011;18003;-33.830;151.202;2024-02-26T11:48:15;1.72;;;1.62;;
25667;SDS011;18003;-33.830;151.202;2024-02-26T11:50:49;2.17;;;1.82;;
25667;SDS011;18003;-33.830;151.202;2024-02-26T11:53:33;2.58;;;1.60;;
25667;SDS011;18003;-33.830;151.202;2024-02-26T11:56:13;2.42;;;1.70;;
25667;SDS011;18003;-33.830;151.202;2024-02-26T11:58:42;3.12;;;1.70;;
25667;SDS011;18003;-33.830;151.202;2024-02-26T12:03:58;1.90;;;1.75;;
25667;SDS011;18003;-33.830;151.202;2024-02-26T12:06:27;2.37;;;2.17;;
25667;SDS011;18003;-33.830;151.202;2024-02-26T12:08:56;1.92;;;1.62;;
25667;SDS011;18003;-33.830;151.202;2024-02-26T12:11:27;1.95;;;1.60;;
25667;SDS011;18003;-33.830;151.202;2024-02-26T12:13:55;2.10;;;1.90;;
25667;SDS011;18003;-33.830;151.202;2024-02-26T12:16:37;1.60;;;1.50;;
25667;SDS011;18003;-33.830;151.202;2024-02-26T12:19:06;2.27;;;1.62;;
25667;SDS011;18003;-33.830;151.202;2024-02-26T12:21:35;2.00;;;1.50;;
25667;SDS011;18003;-33.830;151.202;2024-02-26T12:24:08;2.58;;;1.80;;
25667;SDS011;18003;-33.830;151.202;2024-02-26T12:26:37;1.85;;;1.70;;
25667;SDS011;18003;-33.830;151.202;2024-02-26T12:29:06;2.12;;;1.80;;
25667;SDS011;18003;-33.830;151.202;2024-02-26T12:31:35;1.95;;;1.70;;
25667;SDS011;18003;-33.830;151.202;2024-02-26T12:34:06;2.30;;;1.98;;
25667;SDS011;18003;-33.830;151.202;2024-02-26T12:36:36;2.02;;;1.75;;
25667;SDS011;18003;-33.830;151.202;2024-02-26T12:39:06;2.00;;;1.62;;
25667;SDS011;18003;-33.830;151.202;2024-02-26T12:41:37;2.60;;;1.72;;
25667;SDS011;18003;-33.830;151.202;2024-02-26T12:44:07;2.47;;;1.80;;
25667;SDS011;18003;-33.830;151.202;2024-02-26T12:46:36;1.98;;;1.65;;
25667;SDS011;18003;-33.830;151.202;2024-02-26T12:49:05;1.70;;;1.60;;
25667;SDS011;18003;-33.830;151.202;2024-02-26T12:51:34;2.08;;;1.87;;
25667;SDS011;18003;-33.830;151.202;2024-02-26T12:54:03;2.00;;;1.80;;
25667;SDS011;18003;-33.830;151.202;2024-02-26T12:56:32;1.55;;;1.45;;
25667;SDS011;18003;-33.830;151.202;2024-02-26T12:59:01;1.82;;;1.57;;
25667;SDS011;18003;-33.830;151.202;2024-02-26T13:01:30;1.70;;;1.60;;
25667;SDS011;18003;-33.830;151.202;2024-02-26T13:04:00;1.85;;;1.40;;
25667;SDS011;18003;-33.830;151.202;2024-02-26T13:06:31;1.92;;;1.30;;
25667;SDS011;18003;-33.830;151.202;2024-02-26T13:09:00;1.87;;;1.45;;
25667;SDS011;18003;-33.830;151.202;2024-02-26T13:11:29;1.50;;;1.40;;
25667;SDS011;18003;-33.830;151.202;2024-02-26T13:13:59;1.77;;;1.50;;
25667;SDS011;18003;-33.830;151.202;2024-02-26T13:16:28;2.08;;;1.60;;
25667;SDS011;18003;-33.830;151.202;2024-02-26T13:18:57;2.05;;;1.50;;
25667;SDS011;18003;-33.830;151.202;2024-02-26T13:21:26;1.67;;;1.35;;
25667;SDS011;18003;-33.830;151.202;2024-02-26T13:23:55;1.50;;;1.40;;
25667;SDS011;18003;-33.830;151.202;2024-02-26T13:26:24;1.62;;;1.47;;
25667;SDS011;18003;-33.830;151.202;2024-02-26T13:29:03;2.52;;;1.60;;
25667;SDS011;18003;-33.830;151.202;2024-02-26T13:31:32;1.70;;;1.37;;
25667;SDS011;18003;-33.830;151.202;2024-02-26T13:34:02;2.10;;;1.70;;
25667;SDS011;18003;-33.830;151.202;2024-02-26T13:36:31;1.70;;;1.60;;
25667;SDS011;18003;-33.830;151.202;2024-02-26T13:39:00;2.30;;;1.72;;
25667;SDS011;18003;-33.830;151.202;2024-02-26T13:41:30;1.70;;;1.60;;
25667;SDS011;18003;-33.830;151.202;2024-02-26T13:43:59;1.67;;;1.42;;
25667;SDS011;18003;-33.830;151.202;2024-02-26T13:46:28;2.02;;;1.35;;
25667;SDS011;18003;-33.830;151.202;2024-02-26T13:48:57;1.37;;;1.27;;
25667;SDS011;18003;-33.830;151.202;2024-02-26T13:51:26;1.75;;;1.42;;
25667;SDS011;18003;-33.830;151.202;2024-02-26T13:53:56;1.72;;;1.50;;
25667;SDS011;18003;-33.830;151.202;2024-02-26T13:56:25;1.30;;;1.20;;
25667;SDS011;18003;-33.830;151.202;2024-02-26T13:58:54;1.60;;;1.50;;
25667;SDS011;18003;-33.830;151.202;2024-02-26T14:01:23;2.00;;;1.62;;
25667;SDS011;18003;-33.830;151.202;2024-02-26T14:03:52;1.40;;;1.30;;
25667;SDS011;18003;-33.830;151.202;2024-02-26T14:06:23;2.23;;;1.33;;
25667;SDS011;18003;-33.830;151.202;2024-02-26T14:08:52;1.67;;;1.32;;
25667;SDS011;18003;-33.830;151.202;2024-02-26T14:11:21;2.33;;;1.55;;
25667;SDS011;18003;-33.830;151.202;2024-02-26T14:13:50;2.20;;;1.52;;
25667;SDS011;18003;-33.830;151.202;2024-02-26T14:16:19;3.08;;;1.55;;
25667;SDS011;18003;-33.830;151.202;2024-02-26T14:18:48;1.30;;;1.20;;
25667;SDS011;18003;-33.830;151.202;2024-02-26T14:21:17;1.55;;;1.45;;
25667;SDS011;18003;-33.830;151.202;2024-02-26T14:23:46;3.35;;;1.65;;
25667;SDS011;18003;-33.830;151.202;2024-02-26T14:26:16;1.32;;;1.22;;
25667;SDS011;18003;-33.830;151.202;2024-02-26T14:28:45;1.87;;;1.30;;